<?xml version="1.0" encoding="UTF-8" standalone="no" ?>
<gpx xmlns="http://www.topografix.com/GPX/1/1" xmlns:xsi="http://www.w3.org/2001/XMLSchema-instance" xsi:schemaLocation="http://www.topografix.com/GPX/1/1 http://www.topografix.com/GPX/1/1/gpx.xsd" version="1.1" creator="VisuGPX - https://www.visugpx.com">
  <metadata>
    <name>rando semillac 5 km</name>
    <desc><![CDATA[photos de la rando dispo en suivant le lien [url]http://rando.pedestre.33.over-blog.com/2020/08/rando-semillac-6-km.html[/url]]]></desc>
  </metadata>
  <trk>
    <name><![CDATA[rando semillac 5 km]]></name>
    <trkseg>
      <trkpt lat="45.39526" lon="-0.59523">
        <ele>77</ele>
        <time>2018-05-25T17:33:59Z</time>
      </trkpt>
      <trkpt lat="45.39484" lon="-0.59501">
        <ele>76</ele>
        <time>2018-05-25T17:34:59Z</time>
      </trkpt>
      <trkpt lat="45.39483" lon="-0.59589">
        <ele>74</ele>
        <time>2018-05-25T17:35:59Z</time>
      </trkpt>
      <trkpt lat="45.39419" lon="-0.5964">
        <ele>68</ele>
        <time>2018-05-25T17:36:59Z</time>
      </trkpt>
      <trkpt lat="45.39263" lon="-0.59672">
        <ele>63</ele>
        <time>2018-05-25T17:37:59Z</time>
      </trkpt>
      <trkpt lat="45.39116" lon="-0.59801">
        <ele>70</ele>
        <time>2018-05-25T17:38:59Z</time>
      </trkpt>
      <trkpt lat="45.39036" lon="-0.59838">
        <ele>68</ele>
        <time>2018-05-25T17:39:59Z</time>
      </trkpt>
      <trkpt lat="45.38959" lon="-0.59876">
        <ele>64</ele>
        <time>2018-05-25T17:40:59Z</time>
      </trkpt>
      <trkpt lat="45.38859" lon="-0.59753">
        <ele>54</ele>
        <time>2018-05-25T17:41:59Z</time>
      </trkpt>
      <trkpt lat="45.38763" lon="-0.59796">
        <ele>50</ele>
        <time>2018-05-25T17:42:59Z</time>
      </trkpt>
      <trkpt lat="45.38612" lon="-0.59474">
        <ele>58</ele>
        <time>2018-05-25T17:43:59Z</time>
      </trkpt>
      <trkpt lat="45.38516" lon="-0.5956">
        <ele>55</ele>
        <time>2018-05-25T17:44:59Z</time>
      </trkpt>
      <trkpt lat="45.38277" lon="-0.59341">
        <ele>52</ele>
        <time>2018-05-25T17:45:59Z</time>
      </trkpt>
      <trkpt lat="45.3822" lon="-0.59375">
        <ele>55</ele>
        <time>2018-05-25T17:46:59Z</time>
      </trkpt>
      <trkpt lat="45.38217" lon="-0.59135">
        <ele>54</ele>
        <time>2018-05-25T17:47:59Z</time>
      </trkpt>
      <trkpt lat="45.38317" lon="-0.59092">
        <ele>53</ele>
        <time>2018-05-25T17:48:59Z</time>
      </trkpt>
      <trkpt lat="45.38383" lon="-0.58453">
        <ele>64</ele>
        <time>2018-05-25T17:49:59Z</time>
      </trkpt>
      <trkpt lat="45.38657" lon="-0.58165">
        <ele>74</ele>
        <time>2018-05-25T17:50:59Z</time>
      </trkpt>
      <trkpt lat="45.3885" lon="-0.57972">
        <ele>84</ele>
        <time>2018-05-25T17:51:59Z</time>
      </trkpt>
      <trkpt lat="45.39115" lon="-0.57895">
        <ele>82</ele>
        <time>2018-05-25T17:52:59Z</time>
      </trkpt>
      <trkpt lat="45.39158" lon="-0.58221">
        <ele>88</ele>
        <time>2018-05-25T17:53:59Z</time>
      </trkpt>
      <trkpt lat="45.39127" lon="-0.58508">
        <ele>83</ele>
        <time>2018-05-25T17:54:59Z</time>
      </trkpt>
      <trkpt lat="45.39091" lon="-0.58701">
        <ele>80</ele>
        <time>2018-05-25T17:55:59Z</time>
      </trkpt>
      <trkpt lat="45.38922" lon="-0.5874">
        <ele>75</ele>
        <time>2018-05-25T17:56:59Z</time>
      </trkpt>
      <trkpt lat="45.39025" lon="-0.59388">
        <ele>55</ele>
        <time>2018-05-25T17:57:59Z</time>
      </trkpt>
      <trkpt lat="45.39245" lon="-0.59658">
        <ele>63</ele>
        <time>2018-05-25T17:58:59Z</time>
      </trkpt>
      <trkpt lat="45.39405" lon="-0.59616">
        <ele>68</ele>
        <time>2018-05-25T17:59:59Z</time>
      </trkpt>
    </trkseg>
  </trk>
</gpx>